sensor_id;sensor_type;location;lat;lon;timestamp;temperature;humidity
75363;DHT22;64122;51.988;5.892;2024-02-14T00:00:33;10.30;73.81
75363;DHT22;64122;51.988;5.892;2024-02-14T00:03:02;10.29;73.96
75363;DHT22;64122;51.988;5.892;2024-02-14T00:05:34;10.34;73.90
75363;DHT22;64122;51.988;5.892;2024-02-14T00:08:07;10.38;73.90
75363;DHT22;64122;51.988;5.892;2024-02-14T00:10:37;10.37;73.99
75363;DHT22;64122;51.988;5.892;2024-02-14T00:13:06;10.35;74.12
75363;DHT22;64122;51.988;5.892;2024-02-14T00:15:36;10.33;74.23
75363;DHT22;64122;51.988;5.892;2024-02-14T00:18:05;10.33;74.31
75363;DHT22;64122;51.988;5.892;2024-02-14T00:20:37;10.33;74.35
75363;DHT22;64122;51.988;5.892;2024-02-14T00:23:06;10.36;74.41
75363;DHT22;64122;51.988;5.892;2024-02-14T00:25:35;10.38;74.41
75363;DHT22;64122;51.988;5.892;2024-02-14T00:28:05;10.37;74.54
75363;DHT22;64122;51.988;5.892;2024-02-14T00:30:34;10.37;74.62
75363;DHT22;64122;51.988;5.892;2024-02-14T00:33:04;10.39;74.67
75363;DHT22;64122;51.988;5.892;2024-02-14T00:35:35;10.37;74.80
75363;DHT22;64122;51.988;5.892;2024-02-14T00:38:05;10.38;74.86
75363;DHT22;64122;51.988;5.892;2024-02-14T00:40:34;10.36;74.99
75363;DHT22;64122;51.988;5.892;2024-02-14T00:43:03;10.38;75.12
75363;DHT22;64122;51.988;5.892;2024-02-14T00:45:33;10.34;75.30
75363;DHT22;64122;51.988;5.892;2024-02-14T00:48:02;10.35;75.48
75363;DHT22;64122;51.988;5.892;2024-02-14T00:50:36;10.35;75.53
75363;DHT22;64122;51.988;5.892;2024-02-14T00:53:06;10.34;75.70
75363;DHT22;64122;51.988;5.892;2024-02-14T00:55:35;10.36;75.68
75363;DHT22;64122;51.988;5.892;2024-02-14T00:58:04;10.37;75.61
75363;DHT22;64122;51.988;5.892;2024-02-14T01:00:33;10.39;75.65
75363;DHT22;64122;51.988;5.892;2024-02-14T01:03:02;10.41;75.66
75363;DHT22;64122;51.988;5.892;2024-02-14T01:05:31;10.41;75.69
75363;DHT22;64122;51.988;5.892;2024-02-14T01:08:04;10.43;75.64
75363;DHT22;64122;51.988;5.892;2024-02-14T01:10:33;10.46;75.73
75363;DHT22;64122;51.988;5.892;2024-02-14T01:13:03;10.48;75.70
75363;DHT22;64122;51.988;5.892;2024-02-14T01:15:32;10.48;75.79
75363;DHT22;64122;51.988;5.892;2024-02-14T01:18:02;10.50;75.81
75363;DHT22;64122;51.988;5.892;2024-02-14T01:20:31;10.53;75.83
75363;DHT22;64122;51.988;5.892;2024-02-14T01:23:03;10.55;75.71
75363;DHT22;64122;51.988;5.892;2024-02-14T01:25:32;10.57;75.75
75363;DHT22;64122;51.988;5.892;2024-02-14T01:28:01;10.60;75.77
75363;DHT22;64122;51.988;5.892;2024-02-14T01:30:31;10.64;75.63
75363;DHT22;64122;51.988;5.892;2024-02-14T01:33:01;10.65;75.65
75363;DHT22;64122;51.988;5.892;2024-02-14T01:35:30;10.70;75.57
75363;DHT22;64122;51.988;5.892;2024-02-14T01:37:59;10.72;75.54
75363;DHT22;64122;51.988;5.892;2024-02-14T01:40:31;10.74;75.49
75363;DHT22;64122;51.988;5.892;2024-02-14T01:43:00;10.70;75.73
75363;DHT22;64122;51.988;5.892;2024-02-14T01:45:29;10.73;75.76
75363;DHT22;64122;51.988;5.892;2024-02-14T01:47:59;10.74;75.79
75363;DHT22;64122;51.988;5.892;2024-02-14T01:50:28;10.78;75.76
75363;DHT22;64122;51.988;5.892;2024-02-14T01:52:58;10.82;75.69
75363;DHT22;64122;51.988;5.892;2024-02-14T01:55:31;10.83;75.65
75363;DHT22;64122;51.988;5.892;2024-02-14T01:58:01;10.85;75.68
75363;DHT22;64122;51.988;5.892;2024-02-14T02:00:30;10.88;75.68
75363;DHT22;64122;51.988;5.892;2024-02-14T02:03:05;10.88;75.67
75363;DHT22;64122;51.988;5.892;2024-02-14T02:05:35;10.90;75.72
75363;DHT22;64122;51.988;5.892;2024-02-14T02:08:06;10.92;75.74
75363;DHT22;64122;51.988;5.892;2024-02-14T02:10:38;10.93;75.71
75363;DHT22;64122;51.988;5.892;2024-02-14T02:13:08;10.97;75.76
75363;DHT22;64122;51.988;5.892;2024-02-14T02:15:38;10.99;75.77
75363;DHT22;64122;51.988;5.892;2024-02-14T02:18:11;11.00;75.89
75363;DHT22;64122;51.988;5.892;2024-02-14T02:20:41;11.02;75.92
75363;DHT22;64122;51.988;5.892;2024-02-14T02:23:13;11.04;75.92
75363;DHT22;64122;51.988;5.892;2024-02-14T02:25:43;11.09;75.98
75363;DHT22;64122;51.988;5.892;2024-02-14T02:28:12;11.09;76.05
75363;DHT22;64122;51.988;5.892;2024-02-14T02:30:42;11.09;76.18
75363;DHT22;64122;51.988;5.892;2024-02-14T02:33:12;11.08;76.28
75363;DHT22;64122;51.988;5.892;2024-02-14T02:35:42;11.10;76.31
75363;DHT22;64122;51.988;5.892;2024-02-14T02:38:14;11.11;76.31
75363;DHT22;64122;51.988;5.892;2024-02-14T02:40:43;11.13;76.37
75363;DHT22;64122;51.988;5.892;2024-02-14T02:43:12;11.11;76.44
75363;DHT22;64122;51.988;5.892;2024-02-14T02:45:41;11.13;76.45
75363;DHT22;64122;51.988;5.892;2024-02-14T02:48:11;11.14;76.44
75363;DHT22;64122;51.988;5.892;2024-02-14T02:50:37;11.12;76.57
75363;DHT22;64122;51.988;5.892;2024-02-14T02:53:06;11.13;76.64
75363;DHT22;64122;51.988;5.892;2024-02-14T02:55:38;11.14;76.71
75363;DHT22;64122;51.988;5.892;2024-02-14T02:58:07;11.15;76.67
75363;DHT22;64122;51.988;5.892;2024-02-14T03:00:36;11.17;76.78
75363;DHT22;64122;51.988;5.892;2024-02-14T03:03:07;11.17;76.80
75363;DHT22;64122;51.988;5.892;2024-02-14T03:05:37;11.17;76.88
75363;DHT22;64122;51.988;5.892;2024-02-14T03:08:06;11.16;77.02
75363;DHT22;64122;51.988;5.892;2024-02-14T03:10:38;11.14;77.11
75363;DHT22;64122;51.988;5.892;2024-02-14T03:13:07;11.15;77.10
75363;DHT22;64122;51.988;5.892;2024-02-14T03:15:37;11.15;77.20
75363;DHT22;64122;51.988;5.892;2024-02-14T03:18:07;11.14;77.33
75363;DHT22;64122;51.988;5.892;2024-02-14T03:20:36;11.13;77.33
75363;DHT22;64122;51.988;5.892;2024-02-14T03:23:05;11.15;77.37
75363;DHT22;64122;51.988;5.892;2024-02-14T03:25:34;11.18;77.38
75363;DHT22;64122;51.988;5.892;2024-02-14T03:28:06;11.18;77.35
75363;DHT22;64122;51.988;5.892;2024-02-14T03:30:36;11.19;77.39
75363;DHT22;64122;51.988;5.892;2024-02-14T03:33:05;11.20;77.41
75363;DHT22;64122;51.988;5.892;2024-02-14T03:35:34;11.23;77.46
75363;DHT22;64122;51.988;5.892;2024-02-14T03:38:04;11.23;77.50
75363;DHT22;64122;51.988;5.892;2024-02-14T03:40:34;11.22;77.60
75363;DHT22;64122;51.988;5.892;2024-02-14T03:43:07;11.22;77.59
75363;DHT22;64122;51.988;5.892;2024-02-14T03:45:38;11.25;77.63
75363;DHT22;64122;51.988;5.892;2024-02-14T03:48:07;11.25;77.69
75363;DHT22;64122;51.988;5.892;2024-02-14T03:50:39;11.28;77.62
75363;DHT22;64122;51.988;5.892;2024-02-14T03:53:09;11.29;77.65
75363;DHT22;64122;51.988;5.892;2024-02-14T03:55:40;11.30;77.67
75363;DHT22;64122;51.988;5.892;2024-02-14T03:58:12;11.31;77.60
75363;DHT22;64122;51.988;5.892;2024-02-14T04:00:43;11.33;77.63
75363;DHT22;64122;51.988;5.892;2024-02-14T04:03:14;11.34;77.57
75363;DHT22;64122;51.988;5.892;2024-02-14T04:05:43;11.39;77.61
75363;DHT22;64122;51.988;5.892;2024-02-14T04:08:13;11.43;77.43
75363;DHT22;64122;51.988;5.892;2024-02-14T04:10:44;11.45;77.47
75363;DHT22;64122;51.988;5.892;2024-02-14T04:13:17;11.48;77.39
75363;DHT22;64122;51.988;5.892;2024-02-14T04:15:47;11.49;77.37
75363;DHT22;64122;51.988;5.892;2024-02-14T04:18:16;11.49;77.42
75363;DHT22;64122;51.988;5.892;2024-02-14T04:20:45;11.52;77.40
75363;DHT22;64122;51.988;5.892;2024-02-14T04:23:14;11.55;77.37
75363;DHT22;64122;51.988;5.892;2024-02-14T04:25:44;11.56;77.29
75363;DHT22;64122;51.988;5.892;2024-02-14T04:28:17;11.57;77.31
75363;DHT22;64122;51.988;5.892;2024-02-14T04:30:46;11.57;77.29
75363;DHT22;64122;51.988;5.892;2024-02-14T04:33:15;11.59;77.25
75363;DHT22;64122;51.988;5.892;2024-02-14T04:35:44;11.62;77.19
75363;DHT22;64122;51.988;5.892;2024-02-14T04:38:13;11.61;77.17
75363;DHT22;64122;51.988;5.892;2024-02-14T04:40:44;11.63;77.20
75363;DHT22;64122;51.988;5.892;2024-02-14T04:43:17;11.66;77.19
75363;DHT22;64122;51.988;5.892;2024-02-14T04:45:46;11.67;77.20
75363;DHT22;64122;51.988;5.892;2024-02-14T04:48:15;11.66;77.25
75363;DHT22;64122;51.988;5.892;2024-02-14T04:50:44;11.64;77.34
75363;DHT22;64122;51.988;5.892;2024-02-14T04:53:13;11.64;77.45
75363;DHT22;64122;51.988;5.892;2024-02-14T04:55:42;11.67;77.47
75363;DHT22;64122;51.988;5.892;2024-02-14T04:58:12;11.67;77.49
75363;DHT22;64122;51.988;5.892;2024-02-14T05:00:43;11.68;77.44
75363;DHT22;64122;51.988;5.892;2024-02-14T05:03:12;11.66;77.60
75363;DHT22;64122;51.988;5.892;2024-02-14T05:05:39;11.69;77.60
75363;DHT22;64122;51.988;5.892;2024-02-14T05:08:08;11.73;77.50
75363;DHT22;64122;51.988;5.892;2024-02-14T05:10:37;11.71;77.56
75363;DHT22;64122;51.988;5.892;2024-02-14T05:13:07;11.72;77.64
75363;DHT22;64122;51.988;5.892;2024-02-14T05:15:36;11.73;77.64
75363;DHT22;64122;51.988;5.892;2024-02-14T05:18:07;11.74;77.56
75363;DHT22;64122;51.988;5.892;2024-02-14T05:20:37;11.77;77.60
75363;DHT22;64122;51.988;5.892;2024-02-14T05:23:07;11.82;77.49
75363;DHT22;64122;51.988;5.892;2024-02-14T05:25:37;11.82;77.44
75363;DHT22;64122;51.988;5.892;2024-02-14T05:28:06;11.83;77.47
75363;DHT22;64122;51.988;5.892;2024-02-14T05:30:39;11.84;77.46
75363;DHT22;64122;51.988;5.892;2024-02-14T05:33:11;11.83;77.47
75363;DHT22;64122;51.988;5.892;2024-02-14T05:35:40;11.84;77.52
75363;DHT22;64122;51.988;5.892;2024-02-14T05:38:09;11.84;77.59
75363;DHT22;64122;51.988;5.892;2024-02-14T05:40:39;11.85;77.61
75363;DHT22;64122;51.988;5.892;2024-02-14T05:43:10;11.88;77.59
75363;DHT22;64122;51.988;5.892;2024-02-14T05:45:39;11.90;77.51
75363;DHT22;64122;51.988;5.892;2024-02-14T05:48:11;11.88;77.53
75363;DHT22;64122;51.988;5.892;2024-02-14T05:50:40;11.91;77.56
75363;DHT22;64122;51.988;5.892;2024-02-14T05:53:10;11.91;77.51
75363;DHT22;64122;51.988;5.892;2024-02-14T05:55:39;11.93;77.50
75363;DHT22;64122;51.988;5.892;2024-02-14T05:58:08;11.94;77.48
75363;DHT22;64122;51.988;5.892;2024-02-14T06:00:38;11.94;77.44
75363;DHT22;64122;51.988;5.892;2024-02-14T06:03:07;11.96;77.43
75363;DHT22;64122;51.988;5.892;2024-02-14T06:05:39;11.93;77.40
75363;DHT22;64122;51.988;5.892;2024-02-14T06:08:09;11.91;77.56
75363;DHT22;64122;51.988;5.892;2024-02-14T06:10:39;11.92;77.60
75363;DHT22;64122;51.988;5.892;2024-02-14T06:13:08;11.93;77.60
75363;DHT22;64122;51.988;5.892;2024-02-14T06:15:37;11.93;77.55
75363;DHT22;64122;51.988;5.892;2024-02-14T06:18:06;11.97;77.52
75363;DHT22;64122;51.988;5.892;2024-02-14T06:20:36;11.98;77.48
75363;DHT22;64122;51.988;5.892;2024-02-14T06:23:08;11.99;77.49
75363;DHT22;64122;51.988;5.892;2024-02-14T06:25:37;11.99;77.51
75363;DHT22;64122;51.988;5.892;2024-02-14T06:28:06;11.99;77.61
75363;DHT22;64122;51.988;5.892;2024-02-14T06:30:35;12.00;77.49
75363;DHT22;64122;51.988;5.892;2024-02-14T06:33:04;12.01;77.49
75363;DHT22;64122;51.988;5.892;2024-02-14T06:35:34;11.96;77.72
75363;DHT22;64122;51.988;5.892;2024-02-14T06:38:03;11.96;77.80
75363;DHT22;64122;51.988;5.892;2024-02-14T06:40:35;11.96;77.77
75363;DHT22;64122;51.988;5.892;2024-02-14T06:43:04;11.94;77.92
75363;DHT22;64122;51.988;5.892;2024-02-14T06:45:33;11.94;78.02
75363;DHT22;64122;51.988;5.892;2024-02-14T06:48:03;11.96;78.01
75363;DHT22;64122;51.988;5.892;2024-02-14T06:50:37;11.94;78.01
75363;DHT22;64122;51.988;5.892;2024-02-14T06:53:06;11.94;78.02
75363;DHT22;64122;51.988;5.892;2024-02-14T06:55:38;11.92;78.18
75363;DHT22;64122;51.988;5.892;2024-02-14T06:58:07;11.93;78.24
75363;DHT22;64122;51.988;5.892;2024-02-14T07:00:36;11.94;78.29
75363;DHT22;64122;51.988;5.892;2024-02-14T07:03:05;11.97;78.23
75363;DHT22;64122;51.988;5.892;2024-02-14T07:05:35;11.94;78.27
75363;DHT22;64122;51.988;5.892;2024-02-14T07:08:04;11.97;78.30
75363;DHT22;64122;51.988;5.892;2024-02-14T07:10:34;11.99;78.34
75363;DHT22;64122;51.988;5.892;2024-02-14T07:13:06;12.00;78.30
75363;DHT22;64122;51.988;5.892;2024-02-14T07:15:35;12.03;78.27
75363;DHT22;64122;51.988;5.892;2024-02-14T07:18:04;12.05;78.19
75363;DHT22;64122;51.988;5.892;2024-02-14T07:20:36;12.07;78.14
75363;DHT22;64122;51.988;5.892;2024-02-14T07:23:05;12.06;78.24
75363;DHT22;64122;51.988;5.892;2024-02-14T07:25:34;12.04;78.28
75363;DHT22;64122;51.988;5.892;2024-02-14T07:28:06;12.04;78.34
75363;DHT22;64122;51.988;5.892;2024-02-14T07:30:35;12.05;78.31
75363;DHT22;64122;51.988;5.892;2024-02-14T07:33:04;12.07;78.34
75363;DHT22;64122;51.988;5.892;2024-02-14T07:35:34;12.08;78.31
75363;DHT22;64122;51.988;5.892;2024-02-14T07:38:03;12.11;78.29
75363;DHT22;64122;51.988;5.892;2024-02-14T07:40:33;12.12;78.38
75363;DHT22;64122;51.988;5.892;2024-02-14T07:43:04;12.12;78.42
75363;DHT22;64122;51.988;5.892;2024-02-14T07:45:34;12.12;78.38
75363;DHT22;64122;51.988;5.892;2024-02-14T07:48:04;12.12;78.37
75363;DHT22;64122;51.988;5.892;2024-02-14T07:50:34;12.13;78.43
75363;DHT22;64122;51.988;5.892;2024-02-14T07:53:04;12.14;78.37
75363;DHT22;64122;51.988;5.892;2024-02-14T07:55:33;12.16;78.44
75363;DHT22;64122;51.988;5.892;2024-02-14T07:58:05;12.17;78.28
75363;DHT22;64122;51.988;5.892;2024-02-14T08:00:34;12.21;78.27
75363;DHT22;64122;51.988;5.892;2024-02-14T08:03:03;12.21;78.27
75363;DHT22;64122;51.988;5.892;2024-02-14T08:05:32;12.25;78.21
75363;DHT22;64122;51.988;5.892;2024-02-14T08:08:02;12.28;78.20
75363;DHT22;64122;51.988;5.892;2024-02-14T08:10:31;12.32;78.17
75363;DHT22;64122;51.988;5.892;2024-02-14T08:13:01;12.35;78.12
75363;DHT22;64122;51.988;5.892;2024-02-14T08:15:33;12.36;78.07
75363;DHT22;64122;51.988;5.892;2024-02-14T08:18:02;12.42;78.00
75363;DHT22;64122;51.988;5.892;2024-02-14T08:20:31;12.41;77.99
75363;DHT22;64122;51.988;5.892;2024-02-14T08:23:00;12.40;78.06
75363;DHT22;64122;51.988;5.892;2024-02-14T08:25:30;12.40;78.04
75363;DHT22;64122;51.988;5.892;2024-02-14T08:27:59;12.36;78.12
75363;DHT22;64122;51.988;5.892;2024-02-14T08:30:28;12.37;78.18
75363;DHT22;64122;51.988;5.892;2024-02-14T08:33:00;12.40;78.16
75363;DHT22;64122;51.988;5.892;2024-02-14T08:35:29;12.41;78.21
75363;DHT22;64122;51.988;5.892;2024-02-14T08:37:59;12.43;78.18
75363;DHT22;64122;51.988;5.892;2024-02-14T08:40:28;12.43;78.16
75363;DHT22;64122;51.988;5.892;2024-02-14T08:42:57;12.43;78.23
75363;DHT22;64122;51.988;5.892;2024-02-14T08:45:26;12.45;78.17
75363;DHT22;64122;51.988;5.892;2024-02-14T08:47:56;12.45;78.11
75363;DHT22;64122;51.988;5.892;2024-02-14T08:50:28;12.47;78.08
75363;DHT22;64122;51.988;5.892;2024-02-14T08:52:57;12.48;78.10
75363;DHT22;64122;51.988;5.892;2024-02-14T08:55:26;12.50;78.10
75363;DHT22;64122;51.988;5.892;2024-02-14T08:57:58;12.52;78.09
75363;DHT22;64122;51.988;5.892;2024-02-14T09:00:28;12.52;78.09
75363;DHT22;64122;51.988;5.892;2024-02-14T09:02:58;12.53;78.14
75363;DHT22;64122;51.988;5.892;2024-02-14T09:05:30;12.55;78.13
75363;DHT22;64122;51.988;5.892;2024-02-14T09:07:59;12.61;78.08
75363;DHT22;64122;51.988;5.892;2024-02-14T09:10:29;12.62;77.98
75363;DHT22;64122;51.988;5.892;2024-02-14T09:12:58;12.63;78.09
75363;DHT22;64122;51.988;5.892;2024-02-14T09:15:28;12.65;78.05
75363;DHT22;64122;51.988;5.892;2024-02-14T09:17:59;12.69;77.98
75363;DHT22;64122;51.988;5.892;2024-02-14T09:20:32;12.70;77.99
75363;DHT22;64122;51.988;5.892;2024-02-14T09:23:01;12.72;77.97
75363;DHT22;64122;51.988;5.892;2024-02-14T09:25:30;12.75;78.01
75363;DHT22;64122;51.988;5.892;2024-02-14T09:27:59;12.78;77.91
75363;DHT22;64122;51.988;5.892;2024-02-14T09:30:28;12.77;77.93
75363;DHT22;64122;51.988;5.892;2024-02-14T09:32:57;12.77;77.91
75363;DHT22;64122;51.988;5.892;2024-02-14T09:35:27;12.71;78.08
75363;DHT22;64122;51.988;5.892;2024-02-14T09:37:58;12.70;78.13
75363;DHT22;64122;51.988;5.892;2024-02-14T09:40:28;12.59;78.27
75363;DHT22;64122;51.988;5.892;2024-02-14T09:43:00;12.66;78.23
75363;DHT22;64122;51.988;5.892;2024-02-14T09:45:31;12.66;78.22
75363;DHT22;64122;51.988;5.892;2024-02-14T09:48:00;12.69;78.27
75363;DHT22;64122;51.988;5.892;2024-02-14T09:50:31;12.74;78.22
75363;DHT22;64122;51.988;5.892;2024-02-14T09:53:03;12.77;78.11
75363;DHT22;64122;51.988;5.892;2024-02-14T09:55:33;12.81;78.02
75363;DHT22;64122;51.988;5.892;2024-02-14T09:58:03;12.84;78.02
75363;DHT22;64122;51.988;5.892;2024-02-14T10:00:34;12.88;77.97
75363;DHT22;64122;51.988;5.892;2024-02-14T10:03:04;12.90;77.92
75363;DHT22;64122;51.988;5.892;2024-02-14T10:05:34;12.93;77.82
75363;DHT22;64122;51.988;5.892;2024-02-14T10:08:06;12.92;77.77
75363;DHT22;64122;51.988;5.892;2024-02-14T10:10:35;12.93;77.79
75363;DHT22;64122;51.988;5.892;2024-02-14T10:13:06;12.93;77.79
75363;DHT22;64122;51.988;5.892;2024-02-14T10:15:36;12.94;77.71
75363;DHT22;64122;51.988;5.892;2024-02-14T10:18:06;12.94;77.79
75363;DHT22;64122;51.988;5.892;2024-02-14T10:20:35;12.97;77.77
75363;DHT22;64122;51.988;5.892;2024-02-14T10:23:12;13.00;77.63
75363;DHT22;64122;51.988;5.892;2024-02-14T10:25:41;13.03;77.59
75363;DHT22;64122;51.988;5.892;2024-02-14T10:28:10;13.07;77.53
75363;DHT22;64122;51.988;5.892;2024-02-14T10:30:39;13.12;77.45
75363;DHT22;64122;51.988;5.892;2024-02-14T10:33:09;13.14;77.46
75363;DHT22;64122;51.988;5.892;2024-02-14T10:35:38;13.16;77.44
75363;DHT22;64122;51.988;5.892;2024-02-14T10:38:11;13.18;77.38
75363;DHT22;64122;51.988;5.892;2024-02-14T10:40:42;13.21;77.41
75363;DHT22;64122;51.988;5.892;2024-02-14T10:43:11;13.24;77.38
75363;DHT22;64122;51.988;5.892;2024-02-14T10:45:40;13.25;77.37
75363;DHT22;64122;51.988;5.892;2024-02-14T10:48:11;13.31;77.30
75363;DHT22;64122;51.988;5.892;2024-02-14T10:50:41;13.35;77.14
75363;DHT22;64122;51.988;5.892;2024-02-14T10:53:14;13.39;77.08
75363;DHT22;64122;51.988;5.892;2024-02-14T10:55:47;13.38;77.13
75363;DHT22;64122;51.988;5.892;2024-02-14T10:58:17;13.39;77.17
75363;DHT22;64122;51.988;5.892;2024-02-14T11:00:47;13.40;77.13
75363;DHT22;64122;51.988;5.892;2024-02-14T11:03:17;13.44;77.14
75363;DHT22;64122;51.988;5.892;2024-02-14T11:05:47;13.45;77.11
75363;DHT22;64122;51.988;5.892;2024-02-14T11:08:21;13.47;77.00
75363;DHT22;64122;51.988;5.892;2024-02-14T11:10:55;13.46;77.05
75363;DHT22;64122;51.988;5.892;2024-02-14T11:13:25;13.48;77.06
75363;DHT22;64122;51.988;5.892;2024-02-14T11:15:57;13.54;77.04
75363;DHT22;64122;51.988;5.892;2024-02-14T11:18:27;13.55;76.95
75363;DHT22;64122;51.988;5.892;2024-02-14T11:20:57;13.60;76.92
75363;DHT22;64122;51.988;5.892;2024-02-14T11:23:30;13.55;76.95
75363;DHT22;64122;51.988;5.892;2024-02-14T11:26:00;13.56;77.10
75363;DHT22;64122;51.988;5.892;2024-02-14T11:28:30;13.59;77.12
75363;DHT22;64122;51.988;5.892;2024-02-14T11:31:00;13.61;77.08
75363;DHT22;64122;51.988;5.892;2024-02-14T11:33:32;13.63;77.05
75363;DHT22;64122;51.988;5.892;2024-02-14T11:36:08;13.56;77.16
75363;DHT22;64122;51.988;5.892;2024-02-14T11:38:43;13.55;77.33
75363;DHT22;64122;51.988;5.892;2024-02-14T11:41:13;13.60;77.26
75363;DHT22;64122;51.988;5.892;2024-02-14T11:43:50;13.64;77.15
75363;DHT22;64122;51.988;5.892;2024-02-14T11:46:20;13.65;77.20
75363;DHT22;64122;51.988;5.892;2024-02-14T11:48:49;13.66;77.14
75363;DHT22;64122;51.988;5.892;2024-02-14T11:51:19;13.67;77.24
75363;DHT22;64122;51.988;5.892;2024-02-14T11:53:51;13.65;77.17
75363;DHT22;64122;51.988;5.892;2024-02-14T11:56:21;13.64;77.24
75363;DHT22;64122;51.988;5.892;2024-02-14T11:58:52;13.64;77.31
75363;DHT22;64122;51.988;5.892;2024-02-14T12:01:21;13.64;77.34
75363;DHT22;64122;51.988;5.892;2024-02-14T12:03:50;13.60;77.37
75363;DHT22;64122;51.988;5.892;2024-02-14T12:06:20;13.62;77.41
75363;DHT22;64122;51.988;5.892;2024-02-14T12:08:52;13.60;77.35
75363;DHT22;64122;51.988;5.892;2024-02-14T12:11:21;13.62;77.36
75363;DHT22;64122;51.988;5.892;2024-02-14T12:13:51;13.66;77.34
75363;DHT22;64122;51.988;5.892;2024-02-14T12:16:20;13.71;77.28
75363;DHT22;64122;51.988;5.892;2024-02-14T12:18:50;13.71;77.20
75363;DHT22;64122;51.988;5.892;2024-02-14T12:21:33;13.74;77.18
75363;DHT22;64122;51.988;5.892;2024-02-14T12:24:06;13.67;77.39
75363;DHT22;64122;51.988;5.892;2024-02-14T12:26:36;13.77;77.07
75363;DHT22;64122;51.988;5.892;2024-02-14T12:29:07;13.80;76.97
75363;DHT22;64122;51.988;5.892;2024-02-14T12:31:36;13.79;77.05
75363;DHT22;64122;51.988;5.892;2024-02-14T12:34:06;13.79;77.24
75363;DHT22;64122;51.988;5.892;2024-02-14T12:36:36;13.79;77.30
75363;DHT22;64122;51.988;5.892;2024-02-14T12:39:07;13.80;77.27
75363;DHT22;64122;51.988;5.892;2024-02-14T12:41:38;13.78;77.37
75363;DHT22;64122;51.988;5.892;2024-02-14T12:44:08;13.78;77.50
75363;DHT22;64122;51.988;5.892;2024-02-14T12:46:37;13.79;77.45
75363;DHT22;64122;51.988;5.892;2024-02-14T12:49:06;13.79;77.50
75363;DHT22;64122;51.988;5.892;2024-02-14T12:51:37;13.76;77.58
75363;DHT22;64122;51.988;5.892;2024-02-14T12:54:09;13.71;77.65
75363;DHT22;64122;51.988;5.892;2024-02-14T12:56:40;13.70;77.81
75363;DHT22;64122;51.988;5.892;2024-02-14T12:59:17;13.66;77.85
75363;DHT22;64122;51.988;5.892;2024-02-14T13:01:47;13.65;77.98
75363;DHT22;64122;51.988;5.892;2024-02-14T13:04:16;13.61;78.08
75363;DHT22;64122;51.988;5.892;2024-02-14T13:06:46;13.60;78.14
75363;DHT22;64122;51.988;5.892;2024-02-14T13:09:18;13.61;78.05
75363;DHT22;64122;51.988;5.892;2024-02-14T13:11:47;13.61;78.10
75363;DHT22;64122;51.988;5.892;2024-02-14T13:14:17;13.60;78.15
75363;DHT22;64122;51.988;5.892;2024-02-14T13:16:46;13.59;78.20
75363;DHT22;64122;51.988;5.892;2024-02-14T13:19:15;13.61;78.20
75363;DHT22;64122;51.988;5.892;2024-02-14T13:21:44;13.59;78.21
75363;DHT22;64122;51.988;5.892;2024-02-14T13:24:14;13.60;78.21
75363;DHT22;64122;51.988;5.892;2024-02-14T13:26:46;13.59;78.21
75363;DHT22;64122;51.988;5.892;2024-02-14T13:29:15;13.62;78.23
75363;DHT22;64122;51.988;5.892;2024-02-14T13:31:45;13.65;78.22
75363;DHT22;64122;51.988;5.892;2024-02-14T13:34:14;13.67;78.19
75363;DHT22;64122;51.988;5.892;2024-02-14T13:36:45;13.65;78.34
75363;DHT22;64122;51.988;5.892;2024-02-14T13:39:15;13.65;78.34
75363;DHT22;64122;51.988;5.892;2024-02-14T13:41:47;13.63;78.34
75363;DHT22;64122;51.988;5.892;2024-02-14T13:44:17;13.51;78.63
75363;DHT22;64122;51.988;5.892;2024-02-14T13:46:46;13.60;78.48
75363;DHT22;64122;51.988;5.892;2024-02-14T13:49:16;13.65;78.43
75363;DHT22;64122;51.988;5.892;2024-02-14T13:51:48;13.66;78.37
75363;DHT22;64122;51.988;5.892;2024-02-14T13:54:17;13.63;78.50
75363;DHT22;64122;51.988;5.892;2024-02-14T13:56:49;13.61;78.65
75363;DHT22;64122;51.988;5.892;2024-02-14T13:59:18;13.64;78.68
75363;DHT22;64122;51.988;5.892;2024-02-14T14:01:48;13.63;78.72
75363;DHT22;64122;51.988;5.892;2024-02-14T14:04:17;13.63;78.79
75363;DHT22;64122;51.988;5.892;2024-02-14T14:06:47;13.62;78.87
75363;DHT22;64122;51.988;5.892;2024-02-14T14:09:16;13.64;78.89
75363;DHT22;64122;51.988;5.892;2024-02-14T14:11:45;13.64;78.95
75363;DHT22;64122;51.988;5.892;2024-02-14T14:14:19;13.64;78.85
75363;DHT22;64122;51.988;5.892;2024-02-14T14:16:52;13.63;78.97
75363;DHT22;64122;51.988;5.892;2024-02-14T14:19:23;13.64;79.01
75363;DHT22;64122;51.988;5.892;2024-02-14T14:21:53;13.62;79.11
75363;DHT22;64122;51.988;5.892;2024-02-14T14:24:23;13.63;79.14
75363;DHT22;64122;51.988;5.892;2024-02-14T14:26:52;13.63;79.21
75363;DHT22;64122;51.988;5.892;2024-02-14T14:29:24;13.63;79.25
75363;DHT22;64122;51.988;5.892;2024-02-14T14:31:57;13.65;79.26
75363;DHT22;64122;51.988;5.892;2024-02-14T14:34:26;13.67;79.24
75363;DHT22;64122;51.988;5.892;2024-02-14T14:36:56;13.68;79.27
75363;DHT22;64122;51.988;5.892;2024-02-14T14:39:26;13.70;79.29
75363;DHT22;64122;51.988;5.892;2024-02-14T14:41:55;13.73;79.27
75363;DHT22;64122;51.988;5.892;2024-02-14T14:44:27;13.73;79.26
75363;DHT22;64122;51.988;5.892;2024-02-14T14:46:56;13.74;79.31
75363;DHT22;64122;51.988;5.892;2024-02-14T14:49:26;13.74;79.40
75363;DHT22;64122;51.988;5.892;2024-02-14T14:51:56;13.74;79.42
75363;DHT22;64122;51.988;5.892;2024-02-14T14:54:26;13.74;79.43
75363;DHT22;64122;51.988;5.892;2024-02-14T14:56:55;13.76;79.45
75363;DHT22;64122;51.988;5.892;2024-02-14T14:59:27;13.76;79.37
75363;DHT22;64122;51.988;5.892;2024-02-14T15:01:56;13.79;79.42
75363;DHT22;64122;51.988;5.892;2024-02-14T15:04:25;13.81;79.37
75363;DHT22;64122;51.988;5.892;2024-02-14T15:06:54;13.82;79.33
75363;DHT22;64122;51.988;5.892;2024-02-14T15:09:23;13.81;79.37
75363;DHT22;64122;51.988;5.892;2024-02-14T15:11:53;13.84;79.40
75363;DHT22;64122;51.988;5.892;2024-02-14T15:14:22;13.86;79.32
75363;DHT22;64122;51.988;5.892;2024-02-14T15:16:55;13.88;79.25
75363;DHT22;64122;51.988;5.892;2024-02-14T15:19:25;13.89;79.22
75363;DHT22;64122;51.988;5.892;2024-02-14T15:21:54;13.92;79.21
75363;DHT22;64122;51.988;5.892;2024-02-14T15:24:25;13.90;79.24
75363;DHT22;64122;51.988;5.892;2024-02-14T15:26:54;13.90;79.26
75363;DHT22;64122;51.988;5.892;2024-02-14T15:29:26;13.95;79.23
75363;DHT22;64122;51.988;5.892;2024-02-14T15:32:10;13.96;79.09
75363;DHT22;64122;51.988;5.892;2024-02-14T15:34:51;13.97;79.10
75363;DHT22;64122;51.988;5.892;2024-02-14T15:37:21;13.97;79.14
75363;DHT22;64122;51.988;5.892;2024-02-14T15:39:51;14.00;79.11
75363;DHT22;64122;51.988;5.892;2024-02-14T15:42:20;14.00;79.04
75363;DHT22;64122;51.988;5.892;2024-02-14T15:44:50;14.00;79.07
75363;DHT22;64122;51.988;5.892;2024-02-14T15:47:21;13.99;79.03